| time (UTC) | temp F | wind direction | speed knots | gust knots | rain 1hr in | rain 24hr in | rain mn in | humidity % | barometer mb |
| 20260507203102 | 61 | 325 | 8.7 | 15.6 | 0.00 | 0.00 | 0.00 | 50 | 1012.7 |
| 20260507201550 | 60 | 345 | 7.8 | 14.8 | 0.00 | 0.00 | 0.00 | 51 | 1013.0 |
| 20260507200053 | 60 | 350 | 5.2 | 13.9 | 0.00 | 0.00 | 0.00 | 51 | 1012.9 |
| 20260507194552 | 59 | 334 | 2.6 | 17.4 | 0.00 | 0.00 | 0.00 | 53 | 1013.0 |
| 20260507193055 | 59 | 326 | 4.3 | 11.3 | 0.00 | 0.00 | 0.00 | 54 | 1013.1 |
| 20260507191550 | 58 | 290 | 2.6 | 13.9 | 0.00 | 0.00 | 0.00 | 56 | 1013.2 |
| 20260507190049 | 56 | 334 | 7.0 | 11.3 | 0.00 | 0.00 | 0.00 | 57 | 1013.3 |
| 20260507184548 | 55 | 294 | 7.0 | 12.2 | 0.00 | 0.00 | 0.00 | 57 | 1013.3 |
| 20260507183054 | 55 | 318 | 5.2 | 11.3 | 0.00 | 0.00 | 0.00 | 58 | 1013.3 |
| 20260507181555 | 54 | 282 | 7.8 | 15.6 | 0.00 | 0.00 | 0.00 | 60 | 1013.3 |
| 20260507180049 | 56 | 282 | 9.6 | 21.7 | 0.00 | 0.00 | 0.00 | 55 | 1013.5 |
| 20260507174556 | 58 | 268 | 12.2 | 21.7 | 0.00 | 0.00 | 0.00 | 53 | 1013.5 |
| 20260507173100 | 59 | 246 | 10.4 | 20.0 | 0.00 | 0.00 | 0.00 | 51 | 1013.4 |
| 20260507171606 | 59 | 302 | 8.7 | 13.9 | 0.00 | 0.00 | 0.00 | 48 | 1013.0 |
| 20260507170056 | 58 | 269 | 7.0 | 15.6 | 0.00 | 0.00 | 0.00 | 51 | 1012.8 |
| 20260507164605 | 58 | 240 | 7.0 | 14.8 | 0.00 | 0.00 | 0.00 | 51 | 1013.0 |
| 20260507163050 | 59 | 248 | 8.7 | 15.6 | 0.00 | 0.00 | 0.00 | 51 | 1013.0 |
| 20260507161603 | 57 | 248 | 8.7 | 15.6 | 0.00 | 0.00 | 0.00 | 52 | 1013.1 |
| 20260507160052 | 57 | 249 | 6.1 | 12.2 | 0.00 | 0.00 | 0.00 | 55 | 1013.2 |
| 20260507154551 | 56 | 264 | 6.1 | 12.2 | 0.00 | 0.00 | 0.00 | 56 | 1013.3 |
| 20260507153052 | 55 | 258 | 5.2 | 11.3 | 0.00 | 0.00 | 0.00 | 61 | 1013.4 |
| 20260507151553 | 52 | 190 | 2.6 | 6.1 | 0.00 | 0.00 | 0.00 | 71 | 1013.5 |
| 20260507150052 | 51 | 138 | 2.6 | 6.1 | 0.00 | 0.00 | 0.00 | 71 | 1013.5 |
| 20260507144550 | 50 | 135 | 1.7 | 7.8 | 0.00 | 0.00 | 0.00 | 75 | 1013.8 |
| 20260507143100 | 48 | 188 | 1.7 | 6.1 | 0.00 | 0.00 | 0.00 | 81 | 1013.6 |
| 20260507141557 | 47 | 350 | 1.7 | 3.5 | 0.00 | 0.00 | 0.00 | 81 | 1013.5 |
| 20260507140054 | 48 | 0 | 0.0 | 2.6 | 0.00 | 0.00 | 0.00 | 73 | 1013.7 |
| 20260507134554 | 49 | 350 | 3.5 | 7.0 | 0.00 | 0.00 | 0.00 | 66 | 1014.0 |
| 20260507133058 | 51 | 306 | 1.7 | 5.2 | 0.00 | 0.00 | 0.00 | 55 | 1013.8 |
| 20260507131550 | 49 | 350 | 1.7 | 6.1 | 0.00 | 0.00 | 0.00 | 53 | 1013.8 |
| 20260507130054 | 48 | 350 | 0.9 | 7.8 | 0.00 | 0.00 | 0.00 | 53 | 1013.2 |
| 20260507124555 | 45 | 350 | 1.7 | 4.3 | 0.00 | 0.00 | 0.00 | 55 | 1013.1 |
| 20260507123049 | 45 | 350 | 1.7 | 4.3 | 0.00 | 0.00 | 0.00 | 55 | 1012.7 |
| 20260507121556 | 44 | 350 | 0.0 | 4.3 | 0.00 | 0.00 | 0.00 | 55 | 1012.7 |
| 20260507120056 | 44 | 350 | 0.9 | 7.0 | 0.00 | 0.00 | 0.00 | 55 | 1012.5 |
| 20260507114550 | 44 | 350 | 1.7 | 3.5 | 0.00 | 0.00 | 0.00 | 54 | 1012.4 |
| 20260507113050 | 44 | 350 | 3.5 | 7.0 | 0.00 | 0.00 | 0.00 | 52 | 1012.4 |
| 20260507111551 | 44 | 0 | 0.0 | 5.2 | 0.00 | 0.00 | 0.00 | 51 | 1012.3 |
| 20260507110108 | 42 | 350 | 3.5 | 7.0 | 0.00 | 0.00 | 0.00 | 53 | 1012.1 |
| 20260507104555 | 42 | 350 | 1.7 | 7.0 | 0.00 | 0.00 | 0.00 | 53 | 1012.0 |
| 20260507103055 | 42 | 350 | 3.5 | 7.8 | 0.00 | 0.00 | 0.00 | 52 | 1012.0 |
| 20260507101552 | 43 | 350 | 1.7 | 10.4 | 0.00 | 0.00 | 0.00 | 50 | 1011.9 |
| 20260507100057 | 42 | 350 | 5.2 | 7.8 | 0.00 | 0.00 | 0.00 | 52 | 1011.9 |
| 20260507094557 | 41 | 350 | 2.6 | 4.3 | 0.00 | 0.00 | 0.00 | 53 | 1012.0 |
| 20260507093059 | 42 | 350 | 3.5 | 7.8 | 0.00 | 0.00 | 0.00 | 50 | 1012.0 |
| 20260507091620 | 43 | 350 | 4.3 | 7.8 | 0.00 | 0.00 | 0.00 | 49 | 1012.0 |
| 20260507090105 | 43 | 350 | 0.9 | 7.0 | 0.00 | 0.00 | 0.00 | 47 | 1012.0 |
| 20260507084555 | 42 | 350 | 1.7 | 5.2 | 0.00 | 0.00 | 0.00 | 48 | 1012.0 |
| 20260507083053 | 42 | 350 | 2.6 | 4.3 | 0.00 | 0.00 | 0.00 | 46 | 1012.0 |
| 20260507081552 | 42 | 350 | 1.7 | 3.5 | 0.00 | 0.00 | 0.00 | 46 | 1012.0 |
| 20260507080053 | 43 | 350 | 1.7 | 3.5 | 0.00 | 0.00 | 0.00 | 45 | 1012.0 |
| 20260507074550 | 42 | 350 | 0.9 | 4.3 | 0.00 | 0.00 | 0.00 | 45 | 1012.3 |
| 20260507073050 | 41 | 350 | 0.9 | 3.5 | 0.00 | 0.00 | 0.00 | 45 | 1012.4 |
| 20260507071557 | 41 | 350 | 2.6 | 5.2 | 0.00 | 0.00 | 0.00 | 44 | 1012.4 |
| 20260507070107 | 43 | 350 | 0.9 | 3.5 | 0.00 | 0.00 | 0.00 | 42 | 1012.4 |
| 20260507064559 | 43 | 350 | 1.7 | 7.0 | 0.00 | 0.00 | 0.00 | 41 | 1012.3 |
| 20260507063051 | 43 | 350 | 2.6 | 5.2 | 0.00 | 0.00 | 0.00 | 41 | 1012.4 |
| 20260507061555 | 43 | 350 | 1.7 | 3.5 | 0.00 | 0.00 | 0.00 | 40 | 1012.4 |
| 20260507060105 | 44 | 350 | 0.9 | 8.7 | 0.00 | 0.00 | 0.00 | 39 | 1012.4 |
| 20260507054557 | 42 | 350 | 0.0 | 2.6 | 0.00 | 0.00 | 0.00 | 41 | 1012.5 |
| 20260507053056 | 44 | 350 | 2.6 | 5.2 | 0.00 | 0.00 | 0.00 | 40 | 1012.3 |
| 20260507051550 | 46 | 350 | 1.7 | 7.8 | 0.00 | 0.00 | 0.00 | 36 | 1012.3 |
| 20260507050053 | 47 | 350 | 3.5 | 7.8 | 0.00 | 0.00 | 0.00 | 36 | 1012.4 |
| 20260507044549 | 44 | 350 | 2.6 | 8.7 | 0.00 | 0.00 | 0.00 | 39 | 1012.5 |
| 20260507043048 | 42 | 350 | 2.6 | 7.0 | 0.00 | 0.00 | 0.00 | 41 | 1012.6 |
| 20260507041550 | 42 | 350 | 0.9 | 7.0 | 0.00 | 0.00 | 0.00 | 41 | 1012.9 |
| 20260507040056 | 42 | 350 | 0.9 | 3.5 | 0.00 | 0.00 | 0.00 | 40 | 1013.1 |
| 20260507034557 | 43 | 350 | 0.9 | 3.5 | 0.00 | 0.00 | 0.00 | 39 | 1013.1 |
| 20260507033049 | 44 | 350 | 0.0 | 2.6 | 0.00 | 0.00 | 0.00 | 38 | 1013.3 |
| 20260507031551 | 46 | 350 | 0.0 | 2.6 | 0.00 | 0.00 | 0.00 | 35 | 1013.3 |
| 20260507030054 | 47 | 350 | 0.9 | 3.5 | 0.00 | 0.00 | 0.00 | 33 | 1013.5 |
| 20260507024556 | 48 | 0 | 0.0 | 1.7 | 0.00 | 0.00 | 0.00 | 32 | 1013.3 |
| 20260507023053 | 49 | 350 | 1.7 | 3.5 | 0.00 | 0.00 | 0.00 | 31 | 1013.2 |
| 20260507021558 | 51 | 350 | 2.6 | 7.8 | 0.00 | 0.00 | 0.00 | 27 | 1013.0 |
| 20260507020056 | 52 | 251 | 1.7 | 7.0 | 0.00 | 0.00 | 0.00 | 26 | 1013.0 |
| 20260507014553 | 53 | 261 | 4.3 | 9.6 | 0.00 | 0.00 | 0.00 | 24 | 1012.9 |
| 20260507013052 | 54 | 260 | 4.3 | 12.2 | 0.00 | 0.00 | 0.00 | 24 | 1012.8 |
| 20260507011555 | 54 | 262 | 5.2 | 11.3 | 0.00 | 0.00 | 0.00 | 23 | 1012.6 |
| 20260507010115 | 54 | 247 | 7.0 | 12.2 | 0.00 | 0.00 | 0.00 | 22 | 1012.8 |
| 20260507004554 | 54 | 242 | 6.1 | 13.0 | 0.00 | 0.00 | 0.00 | 23 | 1012.8 |
| 20260507003100 | 54 | 267 | 7.8 | 15.6 | 0.00 | 0.00 | 0.00 | 21 | 1012.8 |
| 20260507001601 | 55 | 263 | 7.0 | 13.0 | 0.00 | 0.00 | 0.00 | 21 | 1012.8 |
| 20260507000051 | 55 | 263 | 8.7 | 17.4 | 0.00 | 0.00 | 0.00 | 20 | 1012.9 |
| 20260506234557 | 54 | 251 | 7.8 | 15.6 | 0.00 | 0.00 | 0.00 | 23 | 1013.1 |
| 20260506233058 | 55 | 242 | 8.7 | 17.4 | 0.00 | 0.00 | 0.00 | 25 | 1013.2 |
| 20260506231551 | 55 | 249 | 8.7 | 15.6 | 0.00 | 0.00 | 0.00 | 24 | 1013.3 |
| 20260506230053 | 55 | 262 | 7.0 | 15.6 | 0.00 | 0.00 | 0.00 | 26 | 1013.2 |
| 20260506224554 | 55 | 217 | 7.0 | 15.6 | 0.00 | 0.00 | 0.00 | 29 | 1013.5 |
| 20260506223057 | 55 | 225 | 6.1 | 13.9 | 0.00 | 0.00 | 0.00 | 28 | 1013.7 |
| 20260506221550 | 54 | 265 | 7.8 | 14.8 | 0.00 | 0.00 | 0.00 | 28 | 1014.0 |
| 20260506220053 | 53 | 271 | 6.1 | 15.6 | 0.00 | 0.00 | 0.00 | 25 | 1014.0 |
| 20260506214550 | 53 | 254 | 4.3 | 15.6 | 0.00 | 0.00 | 0.00 | 24 | 1014.3 |
| 20260506213055 | 53 | 218 | 7.0 | 13.9 | 0.00 | 0.00 | 0.00 | 24 | 1014.4 |
| 20260506211559 | 53 | 269 | 7.0 | 14.8 | 0.00 | 0.00 | 0.00 | 24 | 1014.9 |
| 20260506210053 | 52 | 237 | 6.1 | 11.3 | 0.00 | 0.00 | 0.00 | 25 | 1015.3 |
| 20260506204559 | 51 | 280 | 7.8 | 16.5 | 0.00 | 0.00 | 0.00 | 27 | 1015.7 |